Time;durP1;ratioP1;P1;durP2;ratioP2;P2;SDS_P1;SDS_P2;PMS_P1;PMS_P2;Temp;Humidity;BMP_temperature;BMP_pressure;BME280_temperature;BME280_humidity;BME280_pressure;Samples;Min_cycle;Max_cycle;Signal;HPM_P1;HPM_P2
2023/12/07 00:00:49;;;;;;;;;;;;;;;19.18;45.09;96666.01;617636;229;67176;-68
2023/12/07 00:03:16;;;;;;;;;;;;;;;19.18;45.11;96671.34;617633;229;64521;-69
2023/12/07 00:05:43;;;;;;;;;;;;;;;19.15;45.05;96661.22;617648;229;67200;-68
2023/12/07 00:08:11;;;;;;;;;;;;;;;19.17;45.02;96670.55;617682;229;68011;-68
2023/12/07 00:10:38;;;;;;;;;;;;;;;19.15;45.05;96667.37;617621;229;64548;-69
2023/12/07 00:13:06;;;;;;;;;;;;;;;19.17;45.03;96670.55;617660;229;64847;-68
2023/12/07 00:15:34;;;;;;;;;;;;;;;19.15;45.09;96672.70;617660;229;64803;-68
2023/12/07 00:18:02;;;;;;;;;;;;;;;19.16;45.21;96679.61;617662;229;64560;-68
2023/12/07 00:20:30;;;;;;;;;;;;;;;19.17;45.04;96680.41;617685;229;67157;-68
2023/12/07 00:22:58;;;;;;;;;;;;;;;19.15;45.08;96683.35;617620;229;67230;-69
2023/12/07 00:25:25;;;;;;;;;;;;;;;19.16;45.16;96682.27;617587;229;64696;-68
2023/12/07 00:27:53;;;;;;;;;;;;;;;19.16;45.17;96684.94;617651;229;67167;-68
2023/12/07 00:30:20;;;;;;;;;;;;;;;19.16;45.03;96678.81;617623;229;67130;-68
2023/12/07 00:32:48;;;;;;;;;;;;;;;19.16;45.09;96684.14;617661;229;63305;-68
2023/12/07 00:35:16;;;;;;;;;;;;;;;19.16;45.05;96682.27;617649;229;64803;-68
2023/12/07 00:37:43;;;;;;;;;;;;;;;19.14;45.08;96679.07;617415;229;67765;-68
2023/12/07 00:40:12;;;;;;;;;;;;;;;19.15;45.08;96694.00;617442;230;64570;-68
2023/12/07 00:42:39;;;;;;;;;;;;;;;19.16;45.12;96684.94;617464;230;66828;-69
2023/12/07 00:45:07;;;;;;;;;;;;;;;19.16;45.09;96687.59;617440;230;67292;-68
2023/12/07 00:47:35;;;;;;;;;;;;;;;19.14;45.15;96691.59;617439;230;65707;-68
2023/12/07 00:50:02;;;;;;;;;;;;;;;19.15;45.18;96696.67;617455;230;67402;-68
2023/12/07 00:52:30;;;;;;;;;;;;;;;19.16;45.09;96700.13;617394;230;67059;-68
2023/12/07 00:54:57;;;;;;;;;;;;;;;19.13;45.09;96693.47;617436;230;64726;-68
2023/12/07 00:57:25;;;;;;;;;;;;;;;19.16;45.12;96700.13;617442;230;67289;-68
2023/12/07 00:59:52;;;;;;;;;;;;;;;19.15;45.07;96694.00;617472;230;66995;-68
2023/12/07 01:02:20;;;;;;;;;;;;;;;19.12;45.01;96694.51;617441;230;64731;-68
2023/12/07 01:04:47;;;;;;;;;;;;;;;19.14;45.18;96697.72;617420;230;67178;-68
2023/12/07 01:07:15;;;;;;;;;;;;;;;19.14;45.11;96692.39;617444;230;66918;-68
2023/12/07 01:09:42;;;;;;;;;;;;;;;19.14;45.14;96689.72;617431;230;64602;-67
2023/12/07 01:12:10;;;;;;;;;;;;;;;19.13;45.13;96690.80;617458;230;67134;-67
2023/12/07 01:14:37;;;;;;;;;;;;;;;19.12;45.10;96681.19;617441;230;64943;-67
2023/12/07 01:17:05;;;;;;;;;;;;;;;19.14;45.03;96692.39;617437;230;64711;-67
2023/12/07 01:19:34;;;;;;;;;;;;;;;19.15;45.13;96696.67;617403;230;64400;-68
2023/12/07 01:22:01;;;;;;;;;;;;;;;19.12;45.03;96693.72;617425;230;66986;-68
2023/12/07 01:24:29;;;;;;;;;;;;;;;19.14;45.03;96695.05;617482;230;64764;-68
2023/12/07 01:26:56;;;;;;;;;;;;;;;19.13;45.07;96696.13;617429;230;67214;-68
2023/12/07 01:29:24;;;;;;;;;;;;;;;19.14;45.09;96699.59;617477;230;66809;-68
2023/12/07 01:31:51;;;;;;;;;;;;;;;19.13;45.18;96695.34;617395;230;62434;-67
2023/12/07 01:34:19;;;;;;;;;;;;;;;19.13;45.18;96690.80;617395;230;68542;-67
2023/12/07 01:36:47;;;;;;;;;;;;;;;19.12;45.12;96689.19;617365;229;67353;-67
2023/12/07 01:39:15;;;;;;;;;;;;;;;19.13;45.19;96698.80;617492;230;64790;-67
2023/12/07 01:41:43;;;;;;;;;;;;;;;19.12;45.11;96697.17;617445;230;65002;-68
2023/12/07 01:44:10;;;;;;;;;;;;;;;19.13;45.14;96698.80;617423;230;67032;-68
2023/12/07 01:46:38;;;;;;;;;;;;;;;19.14;45.23;96696.92;617400;230;62704;-68
2023/12/07 01:49:06;;;;;;;;;;;;;;;19.13;45.21;96696.13;617419;230;67220;-68
2023/12/07 01:51:33;;;;;;;;;;;;;;;19.13;45.29;96693.47;617493;230;66881;-68
2023/12/07 01:54:01;;;;;;;;;;;;;;;19.12;45.27;96689.19;617387;230;64645;-68
2023/12/07 01:56:29;;;;;;;;;;;;;;;19.14;45.31;96692.39;617463;230;66638;-68
2023/12/07 01:58:56;;;;;;;;;;;;;;;19.13;45.39;96690.80;617414;230;66824;-68
2023/12/07 02:01:24;;;;;;;;;;;;;;;19.13;45.20;96692.67;617469;230;64731;-68
2023/12/07 02:03:51;;;;;;;;;;;;;;;19.13;45.28;96700.66;617462;230;67318;-67
2023/12/07 02:06:20;;;;;;;;;;;;;;;19.11;45.30;96687.59;617439;230;66657;-67
2023/12/07 02:08:48;;;;;;;;;;;;;;;19.12;45.30;96688.39;617449;230;64654;-68
2023/12/07 02:11:15;;;;;;;;;;;;;;;19.12;45.24;96693.72;617439;230;64629;-68
2023/12/07 02:13:43;;;;;;;;;;;;;;;19.12;45.30;96693.72;617423;230;64558;-67
2023/12/07 02:16:21;;;;;;;;;;;;;;;19.11;45.21;96692.92;617455;230;62715;-68
2023/12/07 02:18:50;;;;;;;;;;;;;;;19.12;45.28;96699.05;617418;229;67254;-68
2023/12/07 02:21:19;;;;;;;;;;;;;;;19.08;45.42;96702.24;617343;229;66926;-67
2023/12/07 02:23:47;;;;;;;;;;;;;;;19.12;45.33;96709.70;617192;229;64812;-67
2023/12/07 02:26:51;;;;;;;;;;;;;;;19.10;45.41;96704.66;617420;230;67060;-67
2023/12/07 02:29:19;;;;;;;;;;;;;;;19.12;45.23;96712.36;617448;230;64914;-66
2023/12/07 02:31:46;;;;;;;;;;;;;;;19.11;45.40;96708.91;617496;228;62833;-66
2023/12/07 02:34:14;;;;;;;;;;;;;;;19.08;45.24;96709.44;617459;230;65888;-66
2023/12/07 02:36:43;;;;;;;;;;;;;;;19.10;45.23;96715.31;617500;229;66448;-66
2023/12/07 02:39:12;;;;;;;;;;;;;;;19.10;45.42;96712.64;617647;229;62414;-66
2023/12/07 02:41:40;;;;;;;;;;;;;;;19.11;45.34;96710.77;617656;229;67171;-66
2023/12/07 02:44:08;;;;;;;;;;;;;;;19.11;45.40;96713.44;617707;229;64851;-66
2023/12/07 02:46:35;;;;;;;;;;;;;;;19.10;45.34;96706.49;617704;229;64592;-67
2023/12/07 02:49:03;;;;;;;;;;;;;;;19.10;45.41;96709.16;617627;229;67342;-66
2023/12/07 02:51:30;;;;;;;;;;;;;;;19.10;45.48;96701.99;617612;229;65226;-67
2023/12/07 02:53:58;;;;;;;;;;;;;;;19.10;45.34;96703.83;617654;229;62481;-67
2023/12/07 02:56:25;;;;;;;;;;;;;;;19.10;45.42;96707.31;617652;229;64958;-67
2023/12/07 02:58:53;;;;;;;;;;;;;;;19.10;45.33;96707.31;617687;229;64944;-67
2023/12/07 03:01:20;;;;;;;;;;;;;;;19.08;45.41;96706.78;617645;229;64881;-67
2023/12/07 03:03:48;;;;;;;;;;;;;;;19.08;45.26;96706.78;617624;227;67199;-67
2023/12/07 03:06:16;;;;;;;;;;;;;;;19.09;45.33;96708.36;617626;229;66915;-67
2023/12/07 03:08:44;;;;;;;;;;;;;;;19.08;45.37;96704.11;617688;229;64597;-68
2023/12/07 03:11:12;;;;;;;;;;;;;;;19.07;45.37;96703.32;617673;229;67019;-68
2023/12/07 03:13:39;;;;;;;;;;;;;;;19.09;45.38;96708.36;617650;229;67189;-68
2023/12/07 03:16:10;;;;;;;;;;;;;;;19.10;45.35;96717.97;617579;229;64723;-68
2023/12/07 03:18:37;;;;;;;;;;;;;;;19.09;45.29;96713.69;617641;229;68253;-68
2023/12/07 03:21:05;;;;;;;;;;;;;;;19.10;45.23;96711.82;617640;229;66901;-67
2023/12/07 03:23:32;;;;;;;;;;;;;;;19.09;45.33;96705.70;617697;229;64610;-68
2023/12/07 03:26:00;;;;;;;;;;;;;;;19.08;45.23;96714.77;617616;229;67842;-68
2023/12/07 03:28:27;;;;;;;;;;;;;;;19.08;45.31;96715.56;617651;229;64762;-68
2023/12/07 03:30:55;;;;;;;;;;;;;;;19.08;45.28;96714.77;617624;229;62607;-68
2023/12/07 03:33:22;;;;;;;;;;;;;;;19.09;45.35;96716.35;617612;229;64951;-67
2023/12/07 03:35:50;;;;;;;;;;;;;;;19.08;45.27;96718.22;617663;229;65898;-67
2023/12/07 03:38:17;;;;;;;;;;;;;;;19.08;45.29;96718.22;617447;230;64606;-67
2023/12/07 03:40:47;;;;;;;;;;;;;;;19.08;45.31;96720.89;617455;230;67046;-67
2023/12/07 03:43:14;;;;;;;;;;;;;;;19.06;45.30;96715.02;617406;230;66845;-67
2023/12/07 03:45:41;;;;;;;;;;;;;;;19.08;45.39;96725.42;617458;230;64590;-67
2023/12/07 03:48:09;;;;;;;;;;;;;;;19.08;45.33;96728.88;617424;230;67284;-67
2023/12/07 03:50:36;;;;;;;;;;;;;;;19.09;45.27;96727.01;617485;230;64809;-67
2023/12/07 03:53:04;;;;;;;;;;;;;;;19.07;45.26;96727.30;617445;230;62680;-67
2023/12/07 03:55:31;;;;;;;;;;;;;;;19.07;45.36;96723.83;617437;230;64970;-67
2023/12/07 03:57:59;;;;;;;;;;;;;;;19.08;45.35;96720.09;617435;230;64456;-67
2023/12/07 04:00:26;;;;;;;;;;;;;;;19.09;45.36;96735.00;617446;230;64728;-67
2023/12/07 04:02:54;;;;;;;;;;;;;;;19.08;45.31;96730.75;617480;230;65122;-67
2023/12/07 04:05:21;;;;;;;;;;;;;;;19.05;45.37;96724.09;617403;230;65137;-67
2023/12/07 04:07:49;;;;;;;;;;;;;;;19.07;45.29;96726.50;617438;230;62354;-67
2023/12/07 04:10:16;;;;;;;;;;;;;;;19.06;45.33;96728.34;617415;230;67175;-67
2023/12/07 04:12:44;;;;;;;;;;;;;;;19.06;45.30;96722.22;617406;230;66908;-67
2023/12/07 04:15:11;;;;;;;;;;;;;;;19.08;45.29;96725.42;617475;230;64723;-67
2023/12/07 04:17:39;;;;;;;;;;;;;;;19.06;45.38;96727.55;617449;230;64930;-67
2023/12/07 04:20:07;;;;;;;;;;;;;;;19.07;45.17;96727.30;617444;230;64828;-67
2023/12/07 04:22:35;;;;;;;;;;;;;;;19.07;45.32;96731.83;617461;230;64803;-67
2023/12/07 04:25:02;;;;;;;;;;;;;;;19.05;45.25;96732.08;617409;230;64289;-68
2023/12/07 04:27:30;;;;;;;;;;;;;;;19.04;45.35;96733.15;617470;230;64772;-68
2023/12/07 04:29:57;;;;;;;;;;;;;;;19.06;45.19;96732.87;617197;230;63313;-68
2023/12/07 04:32:25;;;;;;;;;;;;;;;19.06;45.42;96738.98;617192;230;64635;-68
2023/12/07 04:34:53;;;;;;;;;;;;;;;19.05;45.42;96742.73;617239;230;66956;-68
2023/12/07 04:37:21;;;;;;;;;;;;;;;19.06;45.29;96744.31;617165;229;64762;-67
2023/12/07 04:39:48;;;;;;;;;;;;;;;19.06;45.25;96749.64;617176;230;67039;-67
2023/12/07 04:42:16;;;;;;;;;;;;;;;19.05;45.24;96748.05;617241;230;67604;-67
2023/12/07 04:44:43;;;;;;;;;;;;;;;19.06;45.26;96754.17;617228;230;62698;-67
2023/12/07 04:47:11;;;;;;;;;;;;;;;19.07;45.37;96745.14;617261;230;64890;-67
2023/12/07 04:49:38;;;;;;;;;;;;;;;19.06;45.37;96743.52;617235;230;66906;-67
2023/12/07 04:52:06;;;;;;;;;;;;;;;19.06;45.26;96746.19;617095;230;62699;-67
2023/12/07 04:54:34;;;;;;;;;;;;;;;19.05;45.30;96747.27;617086;230;67152;-67
2023/12/07 04:57:02;;;;;;;;;;;;;;;19.06;45.30;96754.17;617305;230;67160;-67
2023/12/07 04:59:29;;;;;;;;;;;;;;;19.05;45.41;96752.59;617418;230;64676;-67
2023/12/07 05:01:57;;;;;;;;;;;;;;;19.06;45.33;96759.50;617430;229;67240;-68
2023/12/07 05:04:24;;;;;;;;;;;;;;;19.05;45.33;96764.03;617421;230;67231;-68
2023/12/07 05:06:52;;;;;;;;;;;;;;;19.04;45.28;96758.96;617468;230;64725;-68
2023/12/07 05:09:19;;;;;;;;;;;;;;;19.03;45.35;96760.83;617405;230;67289;-68
2023/12/07 05:11:47;;;;;;;;;;;;;;;19.04;45.29;96773.09;617469;230;66853;-67
2023/12/07 05:14:14;;;;;;;;;;;;;;;19.04;45.26;96769.61;617426;230;62445;-67
2023/12/07 05:16:42;;;;;;;;;;;;;;;19.05;45.32;96769.36;617419;230;67314;-67
2023/12/07 05:19:09;;;;;;;;;;;;;;;19.04;45.26;96783.75;617262;230;64958;-67
2023/12/07 05:21:38;;;;;;;;;;;;;;;19.06;45.34;96780.81;617215;230;66111;-67
2023/12/07 05:24:06;;;;;;;;;;;;;;;19.05;45.30;96787.21;617202;230;67145;-67
2023/12/07 05:26:34;;;;;;;;;;;;;;;19.04;45.37;96786.41;617228;230;67827;-67
2023/12/07 05:29:01;;;;;;;;;;;;;;;19.04;45.27;96785.59;617213;230;64560;-67
2023/12/07 05:31:29;;;;;;;;;;;;;;;19.04;45.27;96783.75;617165;230;67031;-67
2023/12/07 05:33:56;;;;;;;;;;;;;;;19.04;45.38;96785.59;617172;230;67011;-67
2023/12/07 05:36:24;;;;;;;;;;;;;;;19.04;45.26;96789.08;617276;229;64710;-67
2023/12/07 05:38:51;;;;;;;;;;;;;;;19.04;45.40;96788.25;617407;229;67005;-67
2023/12/07 05:41:18;;;;;;;;;;;;;;;19.04;45.34;96790.92;617391;229;67760;-67
2023/12/07 05:43:46;;;;;;;;;;;;;;;19.05;45.25;96795.20;617277;229;64555;-67
2023/12/07 05:46:13;;;;;;;;;;;;;;;19.04;45.30;96798.91;617389;229;67503;-67
2023/12/07 05:48:41;;;;;;;;;;;;;;;19.03;45.35;96790.13;617420;229;64890;-67
2023/12/07 05:51:15;;;;;;;;;;;;;;;19.04;45.36;96798.91;617412;229;64561;-67
2023/12/07 05:53:43;;;;;;;;;;;;;;;19.03;45.26;96799.98;617415;229;67061;-67
2023/12/07 05:56:11;;;;;;;;;;;;;;;19.04;45.29;96804.23;617364;229;67009;-68
2023/12/07 05:58:39;;;;;;;;;;;;;;;19.04;45.37;96812.23;617492;229;62693;-68
2023/12/07 06:01:07;;;;;;;;;;;;;;;19.04;45.31;96809.56;617477;229;64602;-69
2023/12/07 06:03:35;;;;;;;;;;;;;;;19.02;45.28;96801.06;617473;229;66751;-68
2023/12/07 06:06:03;;;;;;;;;;;;;;;19.04;45.38;96806.90;617469;229;62420;-68
2023/12/07 06:08:30;;;;;;;;;;;;;;;19.04;45.31;96804.23;617341;229;65427;-68
2023/12/07 06:10:58;;;;;;;;;;;;;;;19.03;45.39;96811.43;617531;229;66612;-68
2023/12/07 06:13:25;;;;;;;;;;;;;;;19.04;45.36;96801.57;617439;229;64739;-68
2023/12/07 06:15:52;;;;;;;;;;;;;;;19.03;45.38;96816.76;617438;229;66983;-68
2023/12/07 06:18:20;;;;;;;;;;;;;;;19.03;45.37;96813.30;617454;229;64403;-67
2023/12/07 06:20:47;;;;;;;;;;;;;;;19.03;45.35;96824.75;617410;229;62724;-68
2023/12/07 06:23:15;;;;;;;;;;;;;;;19.03;45.25;96829.28;617487;229;64683;-68
2023/12/07 06:25:42;;;;;;;;;;;;;;;19.03;45.36;96823.95;617453;229;64535;-68
2023/12/07 06:28:10;;;;;;;;;;;;;;;19.03;45.38;96829.28;617424;229;64635;-68
2023/12/07 06:30:37;;;;;;;;;;;;;;;19.03;45.35;96829.28;617382;229;64997;-68
2023/12/07 06:33:05;;;;;;;;;;;;;;;19.03;45.38;96829.28;617404;229;67221;-68
2023/12/07 06:35:32;;;;;;;;;;;;;;;19.03;45.34;96829.28;617414;229;64739;-68
2023/12/07 06:38:00;;;;;;;;;;;;;;;19.03;45.38;96831.94;617455;229;66954;-68
2023/12/07 06:40:27;;;;;;;;;;;;;;;19.02;45.34;96833.02;617425;229;66863;-68
2023/12/07 06:42:55;;;;;;;;;;;;;;;19.01;45.30;96832.19;617354;229;63478;-68
2023/12/07 06:45:22;;;;;;;;;;;;;;;18.99;45.42;96831.67;617452;229;67243;-68
2023/12/07 06:47:50;;;;;;;;;;;;;;;19.01;45.32;96834.06;617419;229;67157;-68
2023/12/07 06:50:17;;;;;;;;;;;;;;;19.01;45.33;96831.40;617527;229;64772;-68
2023/12/07 06:52:45;;;;;;;;;;;;;;;19.02;45.39;96835.68;617449;229;64429;-68
2023/12/07 06:55:14;;;;;;;;;;;;;;;19.02;45.34;96838.34;617376;229;65625;-67
2023/12/07 06:57:42;;;;;;;;;;;;;;;19.03;45.30;96838.06;617292;227;64727;-68
2023/12/07 07:00:10;;;;;;;;;;;;;;;19.01;45.38;96836.72;617444;229;67424;-68
2023/12/07 07:02:40;;;;;;;;;;;;;;;18.99;45.32;96838.87;616764;229;66978;-68
2023/12/07 07:05:11;;;;;;;;;;;;;;;19.01;45.15;96842.05;617415;229;62665;-68
2023/12/07 07:07:38;;;;;;;;;;;;;;;19.01;45.14;96842.05;617225;229;67117;-68
2023/12/07 07:10:06;;;;;;;;;;;;;;;19.00;45.11;96841.25;619844;227;64974;-69
2023/12/07 07:12:33;;;;;;;;;;;;;;;18.99;44.96;96844.99;620346;228;64797;-69
2023/12/07 07:15:01;;;;;;;;;;;;;;;18.99;44.92;96847.66;620678;228;67097;-69
2023/12/07 07:17:29;;;;;;;;;;;;;;;18.97;51.71;96843.65;619842;227;67054;-69
2023/12/07 07:19:56;;;;;;;;;;;;;;;18.94;44.68;96850.30;617313;229;64346;-69
2023/12/07 07:22:24;;;;;;;;;;;;;;;18.95;44.45;96846.56;617354;229;67019;-68
2023/12/07 07:24:52;;;;;;;;;;;;;;;18.97;44.39;96851.64;617354;229;67075;-69
2023/12/07 07:27:19;;;;;;;;;;;;;;;18.99;44.32;96854.84;617367;227;62446;-69
2023/12/07 07:29:47;;;;;;;;;;;;;;;18.97;44.41;96852.44;617375;229;67200;-67
2023/12/07 07:32:15;;;;;;;;;;;;;;;18.99;44.42;96868.96;617262;229;66884;-69
2023/12/07 07:34:43;;;;;;;;;;;;;;;18.98;44.57;96863.88;617252;229;64882;-68
2023/12/07 07:37:10;;;;;;;;;;;;;;;18.99;44.58;96860.97;617583;229;67138;-68
2023/12/07 07:39:38;;;;;;;;;;;;;;;19.00;44.55;96872.42;617944;224;66894;-70
2023/12/07 07:42:06;;;;;;;;;;;;;;;19.00;44.50;96872.42;617850;224;67770;-70
2023/12/07 07:44:33;;;;;;;;;;;;;;;18.97;44.56;96865.75;623569;227;67237;-67
2023/12/07 07:47:01;;;;;;;;;;;;;;;19.01;44.76;96866.02;619464;227;68205;-68
2023/12/07 07:49:28;;;;;;;;;;;;;;;19.00;44.51;96869.75;618013;229;64727;-69
2023/12/07 07:51:56;;;;;;;;;;;;;;;19.02;44.54;96864.98;618731;227;67213;-68
2023/12/07 07:54:23;;;;;;;;;;;;;;;19.01;44.81;96868.68;620485;227;69065;-69
2023/12/07 07:56:51;;;;;;;;;;;;;;;19.03;45.55;96871.89;624052;227;65499;-69
2023/12/07 07:59:18;;;;;;;;;;;;;;;19.03;45.28;96869.23;620667;224;67205;-69
2023/12/07 08:01:51;;;;;;;;;;;;;;;19.02;44.97;96870.30;621860;224;67939;-71
2023/12/07 08:04:16;;;;;;;;;;;;;;;19.03;44.85;96866.56;618115;226;64726;-71
2023/12/07 08:06:43;;;;;;;;;;;;;;;19.03;44.78;96869.23;619916;224;66859;-68
2023/12/07 08:09:11;;;;;;;;;;;;;;;19.05;44.73;96875.11;621236;224;67009;-67
2023/12/07 08:11:38;;;;;;;;;;;;;;;19.05;44.73;96883.09;622342;224;64787;-69
2023/12/07 08:14:06;;;;;;;;;;;;;;;19.03;44.79;96877.22;618922;224;67269;-67
2023/12/07 08:16:33;;;;;;;;;;;;;;;19.05;44.91;96875.90;621889;224;64794;-70
2023/12/07 08:19:01;;;;;;;;;;;;;;;19.07;44.96;96880.98;618553;224;62614;-68
2023/12/07 08:21:29;;;;;;;;;;;;;;;19.06;45.01;96876.69;620531;224;64797;-68
2023/12/07 08:23:57;;;;;;;;;;;;;;;19.07;45.01;96884.44;618447;224;66888;-71
2023/12/07 08:26:24;;;;;;;;;;;;;;;19.06;45.02;96885.48;621799;224;64725;-69
2023/12/07 08:28:53;;;;;;;;;;;;;;;19.07;45.02;96892.42;619811;224;67187;-70
2023/12/07 08:31:23;;;;;;;;;;;;;;;19.08;45.02;96890.56;621907;224;64869;-71
2023/12/07 08:33:52;;;;;;;;;;;;;;;19.08;45.01;96893.22;622555;224;64956;-71
2023/12/07 08:36:19;;;;;;;;;;;;;;;19.08;45.04;96891.35;621734;225;64009;-71
2023/12/07 08:38:47;;;;;;;;;;;;;;;19.08;45.06;96895.88;618990;225;66856;-72
2023/12/07 08:41:14;;;;;;;;;;;;;;;19.07;45.05;96897.75;620121;225;62591;-69
2023/12/07 08:43:42;;;;;;;;;;;;;;;19.10;45.05;96901.77;620620;226;64965;-69
2023/12/07 08:46:10;;;;;;;;;;;;;;;19.09;45.05;96908.13;620178;225;64814;-71
2023/12/07 08:48:38;;;;;;;;;;;;;;;19.10;45.07;96907.09;620969;225;64665;-71
2023/12/07 08:51:08;;;;;;;;;;;;;;;19.10;45.06;96901.77;617637;227;68012;-68
2023/12/07 08:53:38;;;;;;;;;;;;;;;19.11;45.06;96899.89;616257;230;64731;-68
2023/12/07 08:56:06;;;;;;;;;;;;;;;19.10;45.06;96898.27;617425;225;62716;-69
2023/12/07 08:58:34;;;;;;;;;;;;;;;19.11;45.03;96890.03;620233;227;67375;-69
2023/12/07 09:01:01;;;;;;;;;;;;;;;19.10;45.04;96890.28;623315;227;67468;-67
2023/12/07 09:03:31;;;;;;;;;;;;;;;19.10;45.01;96895.61;624329;227;64836;-68
2023/12/07 09:06:01;;;;;;;;;;;;;;;19.08;45.06;96895.88;624325;227;67954;-70
2023/12/07 09:08:29;;;;;;;;;;;;;;;19.07;45.09;96894.30;624281;227;64926;-68
2023/12/07 09:10:56;;;;;;;;;;;;;;;19.10;45.23;96885.78;624332;227;62457;-68
2023/12/07 09:13:23;;;;;;;;;;;;;;;19.10;45.18;96892.95;624441;227;64960;-69
2023/12/07 09:15:51;;;;;;;;;;;;;;;19.08;45.24;96886.03;624366;227;64940;-70
2023/12/07 09:18:18;;;;;;;;;;;;;;;19.08;45.22;96887.89;624368;227;62596;-69
2023/12/07 09:20:46;;;;;;;;;;;;;;;19.09;45.15;96884.16;624372;227;66700;-69
2023/12/07 09:23:18;;;;;;;;;;;;;;;19.09;45.09;96881.49;624384;227;67013;-68
2023/12/07 09:25:43;;;;;;;;;;;;;;;19.10;45.07;96885.78;624152;227;64498;-68
2023/12/07 09:28:11;;;;;;;;;;;;;;;19.08;45.10;96875.37;624464;227;67244;-69
2023/12/07 09:30:39;;;;;;;;;;;;;;;19.10;45.11;96877.78;624383;227;64741;-69
2023/12/07 09:33:06;;;;;;;;;;;;;;;19.11;45.17;96878.58;624390;227;62458;-69
2023/12/07 09:35:34;;;;;;;;;;;;;;;19.10;45.24;96880.45;624438;227;65056;-68
2023/12/07 09:38:01;;;;;;;;;;;;;;;19.12;45.20;96883.63;625152;224;67085;-70
2023/12/07 09:40:30;;;;;;;;;;;;;;;19.11;45.17;96878.58;625000;226;64757;-66
2023/12/07 09:42:57;;;;;;;;;;;;;;;19.08;45.14;96866.59;625497;224;67197;-69
2023/12/07 09:45:25;;;;;;;;;;;;;;;19.11;45.21;96879.38;627996;226;66973;-68
2023/12/07 09:47:53;;;;;;;;;;;;;;;19.11;45.20;96874.05;627748;226;64790;-68
2023/12/07 09:50:21;;;;;;;;;;;;;;;19.10;45.57;96867.13;628030;225;67257;-68
2023/12/07 09:52:50;;;;;;;;;;;;;;;19.10;46.27;96860.98;627980;226;66925;-69
2023/12/07 09:55:18;;;;;;;;;;;;;;;19.11;46.36;96867.92;627975;226;62649;-68
2023/12/07 09:57:47;;;;;;;;;;;;;;;19.09;45.69;96865.52;628069;226;65020;-69
2023/12/07 10:00:15;;;;;;;;;;;;;;;19.07;45.76;96863.13;627742;226;64871;-68
2023/12/07 10:02:43;;;;;;;;;;;;;;;19.10;45.83;96867.13;627993;226;64659;-69
2023/12/07 10:05:13;;;;;;;;;;;;;;;19.09;45.43;96857.52;628083;226;67202;-70
2023/12/07 10:07:41;;;;;;;;;;;;;;;19.11;45.28;96863.39;628053;226;66509;-70
2023/12/07 10:10:14;;;;;;;;;;;;;;;19.10;45.20;96867.13;628071;226;64732;-71
2023/12/07 10:12:40;;;;;;;;;;;;;;;19.10;45.31;96869.80;627910;226;66885;-70
2023/12/07 10:15:14;;;;;;;;;;;;;;;19.10;45.24;96868.97;627819;226;67093;-70
2023/12/07 10:17:49;;;;;;;;;;;;;;;19.08;45.18;96853.27;628079;226;64701;-68
2023/12/07 10:20:18;;;;;;;;;;;;;;;19.10;45.21;96858.31;628017;226;66880;-70
2023/12/07 10:22:46;;;;;;;;;;;;;;;19.10;45.23;96856.48;627825;226;66818;-70
2023/12/07 10:25:15;;;;;;;;;;;;;;;19.10;45.42;96860.98;627997;226;64838;-70
2023/12/07 10:27:42;;;;;;;;;;;;;;;19.08;45.27;96861.26;628058;226;66752;-69
2023/12/07 10:30:11;;;;;;;;;;;;;;;19.10;45.20;96848.48;628046;226;66933;-70
2023/12/07 10:32:39;;;;;;;;;;;;;;;19.10;45.18;96848.48;628047;226;62578;-69
2023/12/07 10:35:08;;;;;;;;;;;;;;;19.11;45.17;96843.95;627991;226;66720;-69
2023/12/07 10:37:35;;;;;;;;;;;;;;;19.10;45.21;96855.66;622676;226;67034;-68
2023/12/07 10:40:05;;;;;;;;;;;;;;;19.10;45.25;96839.67;621483;228;62403;-68
2023/12/07 10:42:36;;;;;;;;;;;;;;;19.10;45.28;96851.16;621514;228;65284;-68
2023/12/07 10:45:05;;;;;;;;;;;;;;;19.10;45.23;96853.81;621487;228;65059;-69
2023/12/07 10:47:35;;;;;;;;;;;;;;;19.10;45.17;96845.00;621501;228;64773;-70
2023/12/07 10:50:03;;;;;;;;;;;;;;;19.08;45.16;96838.08;621401;228;67230;-69
2023/12/07 10:52:33;;;;;;;;;;;;;;;19.10;45.22;96845.00;621490;228;67060;-71
2023/12/07 10:55:05;;;;;;;;;;;;;;;19.10;45.11;96848.48;621556;228;64880;-71
2023/12/07 10:57:34;;;;;;;;;;;;;;;19.06;45.13;96844.73;621501;228;64963;-69
2023/12/07 11:00:02;;;;;;;;;;;;;;;19.10;45.10;96852.98;621499;228;67169;-69
2023/12/07 11:02:30;;;;;;;;;;;;;;;19.09;45.12;96860.19;621484;228;62516;-70
2023/12/07 11:04:58;;;;;;;;;;;;;;;19.09;45.07;96860.19;619649;227;66999;-69
2023/12/07 11:07:27;;;;;;;;;;;;;;;19.11;45.13;96858.06;616977;230;65016;-69
2023/12/07 11:09:57;;;;;;;;;;;;;;;19.12;45.15;96853.53;616939;230;63516;-70
2023/12/07 11:12:32;;;;;;;;;;;;;;;19.11;45.20;96859.94;616768;230;64893;-70
2023/12/07 11:15:00;;;;;;;;;;;;;;;19.09;45.09;96854.86;611674;230;67037;-70
2023/12/07 11:17:27;;;;;;;;;;;;;;;19.07;45.11;96851.68;616836;230;65385;-71
2023/12/07 11:19:55;;;;;;;;;;;;;;;19.09;45.18;96860.19;616938;230;66924;-69
2023/12/07 11:22:23;;;;;;;;;;;;;;;19.09;45.13;96857.52;617038;230;66851;-72
2023/12/07 11:25:00;;;;;;;;;;;;;;;19.07;45.02;96857.80;616907;230;64580;-70
2023/12/07 11:27:28;;;;;;;;;;;;;;;19.07;45.01;96863.13;616904;230;67043;-73
2023/12/07 11:29:55;;;;;;;;;;;;;;;19.09;45.02;96862.84;616892;230;67336;-68
2023/12/07 11:32:23;;;;;;;;;;;;;;;19.09;45.10;96860.19;616858;230;62700;-71
2023/12/07 11:34:52;;;;;;;;;;;;;;;19.09;45.07;96865.52;616996;230;64793;-72
2023/12/07 11:37:20;;;;;;;;;;;;;;;19.11;45.05;96868.72;617132;229;67308;-72
2023/12/07 11:39:49;;;;;;;;;;;;;;;19.11;45.06;96862.60;617246;230;64666;-71
2023/12/07 11:42:18;;;;;;;;;;;;;;;19.12;45.06;96862.32;617269;230;64718;-70
2023/12/07 11:44:49;;;;;;;;;;;;;;;19.12;45.12;96864.98;617296;230;67001;-72
2023/12/07 11:47:17;;;;;;;;;;;;;;;19.12;45.17;96861.52;617138;230;62489;-72
2023/12/07 11:49:44;;;;;;;;;;;;;;;19.11;45.17;96855.41;617324;230;66840;-71
2023/12/07 11:52:17;;;;;;;;;;;;;;;19.10;45.21;96853.81;617309;230;67229;-71
2023/12/07 11:54:45;;;;;;;;;;;;;;;19.13;45.26;96866.61;617227;230;65052;-71
2023/12/07 11:57:16;;;;;;;;;;;;;;;19.13;45.29;96868.47;617205;230;64832;-69
2023/12/07 11:59:50;;;;;;;;;;;;;;;19.13;45.28;96868.47;617273;230;67243;-69
2023/12/07 12:02:21;;;;;;;;;;;;;;;19.12;45.37;96866.86;616982;230;45600;-69
2023/12/07 12:04:48;;;;;;;;;;;;;;;19.12;45.25;96864.19;617357;230;65147;-71
2023/12/07 12:07:16;;;;;;;;;;;;;;;19.08;45.21;96863.92;617209;230;64469;-70
2023/12/07 12:09:44;;;;;;;;;;;;;;;19.12;45.20;96861.52;617253;230;64802;-72
2023/12/07 12:12:15;;;;;;;;;;;;;;;19.11;45.17;96860.73;617361;230;64738;-68
2023/12/07 12:14:41;;;;;;;;;;;;;;;19.12;45.16;96862.32;617173;230;64853;-67
2023/12/07 12:17:09;;;;;;;;;;;;;;;19.10;45.21;96858.31;617291;230;62433;-69
2023/12/07 12:19:37;;;;;;;;;;;;;;;19.10;45.14;96856.48;617272;230;67222;-67
2023/12/07 12:22:06;;;;;;;;;;;;;;;19.11;45.15;96862.60;617225;230;65699;-68
2023/12/07 12:24:34;;;;;;;;;;;;;;;19.12;45.17;96861.52;617276;230;64728;-70
2023/12/07 12:27:03;;;;;;;;;;;;;;;19.11;45.13;96852.73;617259;230;64717;-69
2023/12/07 12:29:31;;;;;;;;;;;;;;;19.13;45.15;96863.14;617282;230;67035;-68
2023/12/07 12:31:58;;;;;;;;;;;;;;;19.12;45.15;96859.66;617252;230;64732;-69
2023/12/07 12:34:26;;;;;;;;;;;;;;;19.12;45.15;96858.86;617275;230;64798;-70
2023/12/07 12:36:55;;;;;;;;;;;;;;;19.12;45.12;96848.20;617682;229;64615;-69
2023/12/07 12:39:24;;;;;;;;;;;;;;;19.11;45.13;96858.06;618201;229;63237;-69
2023/12/07 12:41:55;;;;;;;;;;;;;;;19.13;45.16;96855.16;618206;229;65698;-69
2023/12/07 12:44:23;;;;;;;;;;;;;;;19.11;45.15;96860.73;618149;229;67389;-71
2023/12/07 12:46:50;;;;;;;;;;;;;;;19.13;45.16;96860.48;618230;229;64887;-72
2023/12/07 12:49:18;;;;;;;;;;;;;;;19.14;45.17;96862.87;618161;229;67367;-74
2023/12/07 12:51:45;;;;;;;;;;;;;;;19.13;45.12;96861.28;618182;229;66874;-72